createdAt,value
2023-05-10T00:04:17.245Z,92.54562
2023-05-10T00:09:29.366Z,92.92548
2023-05-10T00:14:41.459Z,92.84436
2023-05-10T00:19:53.636Z,93.06841
2023-05-10T00:25:05.820Z,93.26797
2023-05-10T00:30:18.258Z,92.58574
2023-05-10T00:35:30.888Z,92.12315
2023-05-10T00:40:43.066Z,91.6453
2023-05-10T00:45:55.222Z,91.35538
2023-05-10T00:51:07.345Z,91.10641
2023-05-10T00:56:20.240Z,91.26622
2023-05-10T01:01:32.377Z,91.59386
2023-05-10T01:06:44.551Z,91.43324
2023-05-10T01:12:00.086Z,91.16096
2023-05-10T01:17:12.298Z,90.87064
2023-05-10T01:22:24.598Z,90.76943
2023-05-10T01:27:36.809Z,90.80716
2023-05-10T01:32:49.522Z,90.96696
2023-05-10T01:38:05.627Z,90.91475
2023-05-10T01:43:17.734Z,90.70834
2023-05-10T01:48:29.892Z,91.2191
2023-05-10T01:53:42.251Z,91.23716
2023-05-10T01:58:54.378Z,91.02312
2023-05-10T02:04:07.158Z,90.8886
2023-05-10T02:09:19.333Z,91.11546
2023-05-10T02:14:31.508Z,91.02188
2023-05-10T02:19:43.686Z,91.34351
2023-05-10T02:24:55.799Z,91.35835
2023-05-10T02:30:07.923Z,91.04073
2023-05-10T02:35:20.073Z,91.4539
2023-05-10T02:40:32.270Z,91.49605
2023-05-10T02:45:44.519Z,91.67874
2023-05-10T02:50:56.734Z,91.33661
2023-05-10T02:56:08.984Z,91.492
2023-05-10T03:01:21.125Z,91.60925
2023-05-10T03:06:33.283Z,91.86102
2023-05-10T03:11:45.404Z,92.13245
2023-05-10T03:16:57.522Z,91.83331
2023-05-10T03:22:09.639Z,92.21478
2023-05-10T03:27:21.737Z,92.62074
2023-05-10T03:32:33.916Z,92.78698
2023-05-10T03:37:46.022Z,92.72272
2023-05-10T03:42:58.132Z,93.03714
2023-05-10T03:48:10.265Z,93.61697
2023-05-10T03:53:22.569Z,94.22894
2023-05-10T03:58:34.687Z,94.13738
2023-05-10T04:03:47.599Z,93.99683
2023-05-10T04:08:59.872Z,93.97395
2023-05-10T04:14:12.982Z,94.02735
2023-05-10T04:19:25.094Z,94.1952
2023-05-10T04:24:37.217Z,93.96793
2023-05-10T04:29:49.340Z,94.23817
2023-05-10T04:35:01.523Z,93.8828
2023-05-10T04:40:13.702Z,93.84025
2023-05-10T04:45:25.874Z,94.02055
2023-05-10T04:50:38.067Z,94.01012
2023-05-10T04:55:50.188Z,93.4825
2023-05-10T05:01:02.917Z,92.94122
2023-05-10T05:06:19.235Z,92.57864
2023-05-10T05:11:31.416Z,93.20348
2023-05-10T05:16:43.694Z,93.22558
2023-05-10T05:21:55.935Z,93.29025
2023-05-10T05:27:08.124Z,93.03168
2023-05-10T05:32:20.235Z,92.96062
2023-05-10T05:37:32.350Z,92.84541
2023-05-10T05:37:44.410Z,92.78598
2023-05-10T05:42:56.522Z,92.07245
2023-05-10T05:48:08.655Z,92.09777
2023-05-10T05:53:20.960Z,91.38585
2023-05-10T05:58:33.088Z,90.92129
2023-05-10T06:03:45.361Z,91.15862
2023-05-10T06:08:57.724Z,90.93259
2023-05-10T06:14:09.898Z,89.69102
2023-05-10T06:19:24.762Z,89.51036
2023-05-10T06:24:38.672Z,89.35419
2023-05-10T06:29:56.366Z,88.91132
2023-05-10T06:35:11.514Z,88.63147
2023-05-10T06:40:23.621Z,87.94405
2023-05-10T06:45:35.757Z,86.45834
2023-05-10T06:50:47.872Z,86.45475
2023-05-10T06:56:00.052Z,85.79462
2023-05-10T07:01:12.344Z,85.38669
2023-05-10T07:06:32.980Z,84.78521
2023-05-10T07:11:46.022Z,85.27556
2023-05-10T07:16:58.163Z,84.50021
2023-05-10T07:22:10.282Z,82.11626
2023-05-10T07:27:22.471Z,81.70993
2023-05-10T07:32:35.704Z,80.92254
2023-05-10T07:37:50.898Z,78.51087
2023-05-10T07:43:03.049Z,77.40383
2023-05-10T07:48:15.172Z,76.49437
2023-05-10T07:53:32.403Z,76.0993
2023-05-10T07:58:44.524Z,73.94299
2023-05-10T08:03:56.698Z,74.39317
2023-05-10T08:09:08.906Z,73.15445
2023-05-10T08:14:21.139Z,73.11999
2023-05-10T08:19:33.261Z,70.24734
2023-05-10T08:24:45.369Z,70.90553
2023-05-10T08:29:57.496Z,69.73549
2023-05-10T08:35:10.796Z,68.48307
2023-05-10T08:40:23.442Z,66.28503
2023-05-10T08:45:35.652Z,68.34018
2023-05-10T08:50:47.866Z,66.59066
2023-05-10T08:56:05.131Z,66.57664
2023-05-10T09:01:17.423Z,65.2825
2023-05-10T09:06:29.708Z,64.16581
2023-05-10T09:11:41.880Z,62.51464
2023-05-10T09:16:54.037Z,62.54718
2023-05-10T09:17:06.212Z,62.7608
2023-05-10T09:22:18.450Z,60.91127
2023-05-10T09:27:30.553Z,62.34799
2023-05-10T09:32:42.804Z,63.02177
2023-05-10T09:37:55.970Z,59.3119
2023-05-10T09:43:10.085Z,60.55274
2023-05-10T09:48:23.434Z,62.12279
2023-05-10T09:53:35.560Z,59.45338
2023-05-10T09:58:47.615Z,60.04291
2023-05-10T10:03:59.840Z,58.96042
2023-05-10T10:09:12.157Z,55.18755
2023-05-10T10:14:24.347Z,55.15588
2023-05-10T10:19:36.909Z,54.5625
2023-05-10T10:24:49.531Z,53.92209
2023-05-10T10:30:02.098Z,52.79943
2023-05-10T10:35:14.474Z,51.79847
2023-05-10T10:40:26.932Z,54.42831
2023-05-10T10:45:40.209Z,50.5704
2023-05-10T10:50:54.066Z,50.13153
2023-05-10T10:56:06.287Z,49.61258
2023-05-10T11:01:18.562Z,51.49965
2023-05-10T11:06:30.706Z,56.79623
2023-05-10T11:11:42.816Z,59.18901
2023-05-10T11:16:55.140Z,58.74116
2023-05-10T11:22:07.831Z,60.85596
2023-05-10T11:27:19.879Z,59.78537
2023-05-10T11:32:32.058Z,63.24382
2023-05-10T11:37:44.214Z,64.95483
2023-05-10T11:42:56.402Z,65.94306
2023-05-10T11:48:08.573Z,63.44991
2023-05-10T11:53:21.250Z,63.76276
2023-05-10T11:58:33.376Z,66.24403
2023-05-10T12:03:45.932Z,61.02121
2023-05-10T12:08:58.178Z,61.95609
2023-05-10T12:14:12.570Z,59.94041
2023-05-10T12:19:25.035Z,57.71548
2023-05-10T12:24:37.255Z,56.43219
2023-05-10T12:29:49.530Z,54.95971
2023-05-10T12:35:02.516Z,54.57747
2023-05-10T12:40:14.795Z,55.03688
2023-05-10T12:45:27.086Z,53.57926
2023-05-10T12:50:39.220Z,51.20252
2023-05-10T12:55:51.328Z,52.15063
2023-05-10T13:01:04.049Z,51.94671
2023-05-10T13:06:16.358Z,49.04749
2023-05-10T13:11:28.569Z,50.95411
2023-05-10T13:16:40.714Z,50.50642
2023-05-10T13:21:52.853Z,48.14737
2023-05-10T13:27:04.974Z,49.00187
2023-05-10T13:32:17.091Z,46.5589
2023-05-10T13:37:29.832Z,46.84082
2023-05-10T13:42:41.949Z,47.31384
2023-05-10T13:47:54.089Z,47.25364
2023-05-10T13:53:06.405Z,46.44253
2023-05-10T13:58:18.705Z,44.59985
2023-05-10T14:03:30.940Z,47.68903
2023-05-10T14:08:43.258Z,46.21857
2023-05-10T14:13:55.518Z,46.86105
2023-05-10T14:19:08.291Z,47.04457
2023-05-10T14:24:20.542Z,47.41161
2023-05-10T14:29:32.659Z,48.47251
2023-05-10T14:34:45.283Z,46.99889
2023-05-10T14:39:57.438Z,46.70539
2023-05-10T14:45:09.563Z,46.45845
2023-05-10T14:50:35.092Z,45.35545
2023-05-10T14:55:48.910Z,44.00629
2023-05-10T15:01:01.129Z,43.44043
2023-05-10T15:06:13.806Z,42.32965
2023-05-10T15:11:25.928Z,44.07518
2023-05-10T15:16:38.103Z,42.54879
2023-05-10T15:21:50.246Z,43.52047
2023-05-10T15:27:02.613Z,45.66957
2023-05-10T15:32:14.795Z,46.52687
2023-05-10T15:37:27.033Z,45.04833
2023-05-10T15:42:39.148Z,46.77496
2023-05-10T15:47:51.371Z,43.85488
2023-05-10T15:53:06.313Z,45.75418
2023-05-10T15:58:18.427Z,46.28782
2023-05-10T16:03:30.601Z,47.78241
2023-05-10T16:08:42.810Z,47.886
2023-05-10T16:13:55.091Z,48.10362
2023-05-10T16:19:07.729Z,46.283
2023-05-10T16:24:22.448Z,49.46965
2023-05-10T16:29:34.643Z,46.21143
2023-05-10T16:34:46.833Z,48.13721
2023-05-10T16:39:59.673Z,50.15858
2023-05-10T16:45:11.922Z,50.59295
2023-05-10T16:50:24.038Z,53.58596
2023-05-10T16:55:36.206Z,55.62654
2023-05-10T17:00:48.329Z,56.92339
2023-05-10T17:06:00.449Z,57.15659
2023-05-10T17:11:12.748Z,57.7753
2023-05-10T17:16:25.497Z,57.52991
2023-05-10T17:21:37.807Z,59.45087
2023-05-10T17:26:50.044Z,60.96668
2023-05-10T17:32:02.897Z,62.18167
2023-05-10T17:37:15.212Z,63.68945
2023-05-10T17:42:27.398Z,66.29741
2023-05-10T17:47:40.120Z,68.21114
2023-05-10T17:52:52.708Z,68.43556
2023-05-10T17:58:07.061Z,66.60487
2023-05-10T18:03:19.164Z,67.85204
2023-05-10T18:08:31.282Z,69.31082
2023-05-10T18:13:48.053Z,70.1444
2023-05-10T18:19:00.518Z,70.77037
2023-05-10T18:24:26.520Z,72.12395
2023-05-10T18:29:49.600Z,72.22028
2023-05-10T18:35:07.231Z,72.2865
2023-05-10T18:40:19.355Z,72.17725
2023-05-10T18:45:31.456Z,74.16608
2023-05-10T18:50:43.749Z,73.14572
2023-05-10T18:55:56.179Z,75.68227
2023-05-10T19:01:08.372Z,76.19058
2023-05-10T19:06:21.007Z,76.58929
2023-05-10T19:11:33.110Z,77.30401
2023-05-10T19:16:45.243Z,77.78223
2023-05-10T19:21:57.379Z,79.27998
2023-05-10T19:27:09.495Z,79.46827
2023-05-10T19:32:23.076Z,78.99763
2023-05-10T19:37:35.248Z,78.75147
2023-05-10T19:42:48.187Z,79.14457
2023-05-10T19:48:00.428Z,79.25979
2023-05-10T19:53:12.505Z,81.21531
2023-05-10T19:58:24.615Z,80.04718
2023-05-10T20:03:36.878Z,81.31766
2023-05-10T20:08:49.002Z,81.44975
2023-05-10T20:14:01.114Z,81.36821
2023-05-10T20:19:13.412Z,81.11442
2023-05-10T20:24:26.121Z,81.01643
2023-05-10T20:29:38.255Z,81.95121
2023-05-10T20:34:50.498Z,81.60748
2023-05-10T20:40:02.687Z,82.36839
2023-05-10T20:45:15.250Z,82.38484
2023-05-10T20:50:27.368Z,82.1174
2023-05-10T20:55:40.562Z,82.17963
2023-05-10T21:00:57.684Z,83.56937
2023-05-10T21:06:11.157Z,81.98807
2023-05-10T21:11:23.413Z,82.07158
2023-05-10T21:16:35.643Z,81.59373
2023-05-10T21:21:48.022Z,82.74976
2023-05-10T21:27:00.152Z,83.57011
2023-05-10T21:32:12.433Z,83.56046
2023-05-10T21:37:24.717Z,83.27454
2023-05-10T21:42:36.835Z,83.59295
2023-05-10T21:47:48.961Z,84.04105
2023-05-10T21:53:01.096Z,83.30661
2023-05-10T21:58:13.193Z,83.16726
2023-05-10T22:03:25.668Z,82.3505
2023-05-10T22:08:38.170Z,83.75872
2023-05-10T22:13:50.282Z,81.78992
2023-05-10T22:19:02.769Z,82.08264
2023-05-10T22:24:15.035Z,81.54978
2023-05-10T22:29:27.197Z,81.49918
2023-05-10T22:34:39.381Z,83.05837
2023-05-10T22:39:51.485Z,83.49606
2023-05-10T22:45:03.727Z,84.14616
2023-05-10T22:50:16.354Z,82.75558
2023-05-10T22:55:28.827Z,83.47878
2023-05-10T23:00:41.001Z,83.35629
2023-05-10T23:05:53.714Z,82.53351
2023-05-10T23:11:05.828Z,80.95541
2023-05-10T23:16:17.996Z,80.91084
2023-05-10T23:21:32.134Z,82.08093
2023-05-10T23:26:44.438Z,82.80692
2023-05-10T23:31:56.625Z,82.7258
2023-05-10T23:37:10.109Z,82.75632
2023-05-10T23:42:22.359Z,82.20981
2023-05-10T23:47:34.585Z,81.72153
2023-05-10T23:52:46.912Z,82.62019
2023-05-10T23:57:59.031Z,83.52045
